Time;durP1;ratioP1;P1;durP2;ratioP2;P2;SDS_P1;SDS_P2;PMS_P1;PMS_P2;Temp;Humidity;BMP_temperature;BMP_pressure;BME280_temperature;BME280_humidity;BME280_pressure;Samples;Min_cycle;Max_cycle;Signal;HPM_P1;HPM_P2
2021/09/13 00:01:30;;;;;;;4.28;3.90;;;18.40;99.90;;;;;;5073176;28;20740;-69
2021/09/13 00:03:57;;;;;;;5.20;4.35;;;18.50;99.90;;;;;;5073138;28;20210;-70
2021/09/13 00:06:24;;;;;;;5.15;4.40;;;18.50;99.90;;;;;;5072995;28;20252;-69
2021/09/13 00:08:51;;;;;;;5.65;4.15;;;18.40;99.90;;;;;;5073207;28;20572;-69
2021/09/13 00:11:17;;;;;;;4.47;4.10;;;18.40;99.90;;;;;;5073134;28;20203;-70
2021/09/13 00:13:44;;;;;;;5.57;4.45;;;18.30;99.90;;;;;;5073014;28;20207;-69
2021/09/13 00:16:11;;;;;;;5.10;4.70;;;18.10;99.90;;;;;;5072720;28;20235;-70
2021/09/13 00:18:39;;;;;;;5.35;4.78;;;17.90;99.90;;;;;;5072736;28;20696;-70
2021/09/13 00:21:06;;;;;;;5.28;4.32;;;17.90;99.90;;;;;;5073058;28;20356;-70
2021/09/13 00:23:33;;;;;;;5.95;4.88;;;18.00;99.90;;;;;;5072843;28;20264;-69
2021/09/13 00:26:00;;;;;;;5.25;4.75;;;18.00;99.90;;;;;;5072628;28;20585;-69
2021/09/13 00:28:27;;;;;;;5.53;4.60;;;18.10;99.90;;;;;;5073031;28;20205;-69
2021/09/13 00:30:54;;;;;;;4.90;4.35;;;18.00;99.90;;;;;;5076519;28;20209;-69
2021/09/13 00:33:21;;;;;;;4.70;4.30;;;18.00;99.90;;;;;;5076540;28;20209;-70
2021/09/13 00:35:49;;;;;;;4.88;4.38;;;18.00;99.90;;;;;;5076037;28;20800;-69
2021/09/13 00:38:16;;;;;;;4.50;4.10;;;18.00;99.90;;;;;;5076470;28;20309;-69
2021/09/13 00:40:43;;;;;;;4.65;4.25;;;17.90;99.90;;;;;;5076475;28;20206;-69
2021/09/13 00:43:09;;;;;;;4.20;3.80;;;17.80;99.90;;;;;;5076237;28;20246;-70
2021/09/13 00:45:36;;;;;;;4.25;3.85;;;17.90;99.90;;;;;;5076038;28;20724;-69
2021/09/13 00:48:03;;;;;;;4.20;3.80;;;17.90;99.90;;;;;;5076082;28;20712;-70
2021/09/13 00:50:30;;;;;;;5.50;3.85;;;17.90;99.90;;;;;;5076310;28;20207;-69
2021/09/13 00:52:58;;;;;;;3.75;3.45;;;17.90;99.90;;;;;;5076121;28;20213;-69
2021/09/13 00:55:26;;;;;;;3.70;3.40;;;17.90;99.90;;;;;;5075920;28;20203;-69
2021/09/13 00:57:54;;;;;;;3.90;3.60;;;17.90;99.90;;;;;;5076094;28;20202;-69
2021/09/13 01:00:22;;;;;;;4.53;4.03;;;17.90;99.90;;;;;;5076547;28;20203;-71
2021/09/13 01:02:49;;;;;;;4.13;3.72;;;18.00;99.90;;;;;;5076072;28;20588;-72
2021/09/13 01:05:16;;;;;;;4.28;3.88;;;17.90;99.90;;;;;;5075728;28;20628;-72
2021/09/13 01:07:43;;;;;;;4.00;3.63;;;17.80;99.90;;;;;;5076047;28;20205;-71
2021/09/13 01:10:12;;;;;;;3.70;3.40;;;17.80;99.90;;;;;;5075916;28;20225;-71
2021/09/13 01:12:39;;;;;;;4.30;3.85;;;17.70;99.90;;;;;;5075802;28;20626;-72
2021/09/13 01:15:07;;;;;;;3.85;3.55;;;17.80;99.90;;;;;;5075376;28;20202;-72
2021/09/13 01:17:34;;;;;;;4.50;3.88;;;17.80;99.90;;;;;;5076080;28;20223;-70
2021/09/13 01:20:01;;;;;;;6.80;3.90;;;17.80;99.90;;;;;;5075680;28;20233;-69
2021/09/13 01:22:28;;;;;;;4.20;3.80;;;17.80;99.90;;;;;;5075719;28;20293;-71
2021/09/13 01:24:57;;;;;;;4.28;3.88;;;17.80;99.90;;;;;;5075424;28;20200;-71
2021/09/13 01:27:24;;;;;;;4.10;3.70;;;17.80;99.90;;;;;;5075334;28;20219;-72
2021/09/13 01:29:51;;;;;;;4.80;4.22;;;17.70;99.90;;;;;;5075558;28;20206;-70
2021/09/13 01:32:17;;;;;;;4.85;4.40;;;17.60;99.90;;;;;;5075514;28;20203;-70
2021/09/13 01:34:44;;;;;;;3.97;3.67;;;17.60;99.90;;;;;;5075299;28;20241;-72
2021/09/13 01:37:12;;;;;;;5.25;4.63;;;17.60;99.90;;;;;;5075112;28;20230;-72
2021/09/13 01:39:39;;;;;;;5.25;4.75;;;17.50;99.90;;;;;;5075234;28;20222;-72
2021/09/13 01:42:07;;;;;;;5.00;3.70;;;17.30;99.90;;;;;;5074355;28;20205;-72
2021/09/13 01:44:34;;;;;;;4.97;3.90;;;17.20;99.90;;;;;;5075001;28;20217;-71
2021/09/13 01:47:01;;;;;;;4.65;4.25;;;17.30;99.90;;;;;;5074790;28;20309;-72
2021/09/13 01:49:28;;;;;;;4.68;4.22;;;17.40;99.90;;;;;;5075145;28;20293;-72
2021/09/13 01:51:55;;;;;;;4.70;4.30;;;17.50;99.90;;;;;;5075107;28;20202;-71
2021/09/13 01:54:22;;;;;;;4.07;3.70;;;17.40;99.90;;;;;;5075028;28;20293;-71
2021/09/13 01:56:48;;;;;;;4.78;4.38;;;17.40;99.90;;;;;;5074849;28;20314;-72
2021/09/13 01:59:17;;;;;;;4.93;4.40;;;17.40;99.90;;;;;;5074737;28;20318;-71
2021/09/13 02:01:43;;;;;;;4.45;4.05;;;17.30;99.90;;;;;;5074921;28;20289;-72
2021/09/13 02:04:10;;;;;;;4.55;4.15;;;17.20;99.90;;;;;;5074858;28;20294;-72
2021/09/13 02:06:37;;;;;;;4.80;4.35;;;17.20;99.90;;;;;;5074582;28;20250;-71
2021/09/13 02:09:04;;;;;;;4.18;3.78;;;17.30;99.90;;;;;;5074773;28;20288;-71
2021/09/13 02:11:31;;;;;;;4.30;3.90;;;17.30;99.90;;;;;;5074723;28;20203;-71
2021/09/13 02:13:58;;;;;;;5.40;4.53;;;17.30;99.90;;;;;;5074678;28;20292;-72
2021/09/13 02:16:26;;;;;;;4.65;4.25;;;17.20;99.90;;;;;;5074130;28;20318;-69
2021/09/13 02:18:52;;;;;;;4.30;3.90;;;17.20;99.90;;;;;;5074251;28;20763;-72
2021/09/13 02:21:19;;;;;;;4.50;3.80;;;17.10;99.90;;;;;;5074483;28;20213;-72
2021/09/13 02:23:46;;;;;;;4.43;3.60;;;17.10;99.90;;;;;;5074497;28;20573;-72
2021/09/13 02:26:13;;;;;;;4.07;3.47;;;17.20;99.90;;;;;;5074273;28;20218;-72
2021/09/13 02:28:40;;;;;;;3.97;3.67;;;17.20;99.90;;;;;;5074120;28;20213;-71
2021/09/13 02:31:07;;;;;;;4.07;3.75;;;17.30;99.90;;;;;;5074356;28;20294;-71
2021/09/13 02:33:35;;;;;;;4.00;3.60;;;17.30;99.90;;;;;;5074313;28;20636;-72
2021/09/13 02:36:02;;;;;;;5.28;3.72;;;17.30;99.90;;;;;;5073855;28;20219;-72
2021/09/13 02:38:29;;;;;;;5.18;3.60;;;17.30;99.90;;;;;;5074137;28;20213;-71
2021/09/13 02:40:57;;;;;;;4.10;3.70;;;17.30;99.90;;;;;;5074144;28;20309;-72
2021/09/13 02:43:23;;;;;;;5.18;3.88;;;17.20;99.90;;;;;;5073895;28;20206;-71
2021/09/13 02:45:50;;;;;;;3.75;3.30;;;17.20;99.90;;;;;;5073877;28;20227;-72
2021/09/13 02:48:17;;;;;;;3.30;3.00;;;17.20;99.90;;;;;;5073750;28;20218;-71
2021/09/13 02:50:45;;;;;;;3.47;3.17;;;17.10;99.90;;;;;;5074034;28;20299;-70
2021/09/13 02:53:12;;;;;;;4.85;3.75;;;17.00;99.90;;;;;;5073782;28;20242;-69
2021/09/13 02:55:39;;;;;;;3.30;3.00;;;17.00;99.90;;;;;;5073631;28;20665;-71
2021/09/13 02:58:06;;;;;;;3.92;3.42;;;17.00;99.90;;;;;;5073975;28;20209;-70
2021/09/13 03:00:32;;;;;;;4.40;3.72;;;16.90;99.90;;;;;;5073743;28;20261;-69
2021/09/13 03:02:59;;;;;;;3.50;3.20;;;16.70;99.90;;;;;;5073763;28;20542;-72
2021/09/13 03:05:26;;;;;;;5.00;3.95;;;16.60;99.90;;;;;;5073602;28;20206;-69
2021/09/13 03:07:55;;;;;;;4.78;4.13;;;16.70;99.90;;;;;;5073835;28;20241;-69
2021/09/13 03:10:21;;;;;;;8.00;5.82;;;16.70;99.90;;;;;;5073774;28;20622;-70
2021/09/13 03:12:48;;;;;;;4.63;3.65;;;16.70;99.90;;;;;;5073694;28;20203;-69
2021/09/13 03:15:15;;;;;;;4.30;3.90;;;16.80;99.90;;;;;;5073375;28;20242;-70
2021/09/13 03:17:43;;;;;;;4.10;3.70;;;16.70;99.90;;;;;;5073677;28;20257;-70
2021/09/13 03:20:11;;;;;;;5.25;3.70;;;16.70;99.90;;;;;;5073558;28;20272;-69
2021/09/13 03:22:38;;;;;;;4.28;3.80;;;16.60;99.90;;;;;;5073619;28;20306;-70
2021/09/13 03:25:08;;;;;;;4.25;3.35;;;16.50;99.90;;;;;;5073434;28;20308;-71
2021/09/13 03:27:35;;;;;;;3.55;3.20;;;16.40;99.90;;;;;;5073504;28;20222;-72
2021/09/13 03:30:01;;;;;;;4.10;3.80;;;16.40;99.90;;;;;;5073224;28;20289;-70
2021/09/13 03:32:28;;;;;;;3.25;2.97;;;16.50;99.90;;;;;;5073563;28;20199;-71
2021/09/13 03:34:55;;;;;;;4.25;3.65;;;16.60;99.90;;;;;;5073322;28;20290;-71
2021/09/13 03:37:22;;;;;;;4.35;3.60;;;16.60;99.90;;;;;;5073465;28;20249;-71
2021/09/13 03:39:49;;;;;;;4.95;3.97;;;16.60;99.90;;;;;;5073357;28;20222;-71
2021/09/13 03:42:17;;;;;;;4.57;3.85;;;16.60;99.90;;;;;;5073366;28;20724;-71
2021/09/13 03:44:44;;;;;;;4.15;3.67;;;16.60;99.90;;;;;;5072893;28;20298;-71
2021/09/13 03:47:11;;;;;;;3.63;3.30;;;16.70;99.90;;;;;;5073376;28;20592;-71
2021/09/13 03:49:38;;;;;;;4.45;3.53;;;16.70;99.90;;;;;;5073164;28;20209;-71
2021/09/13 03:52:08;;;;;;;3.90;3.47;;;16.70;99.90;;;;;;5073345;28;20206;-72
2021/09/13 03:54:35;;;;;;;4.85;4.18;;;16.60;99.90;;;;;;5073575;28;20568;-71
2021/09/13 03:57:02;;;;;;;3.53;3.22;;;16.60;99.90;;;;;;5073078;28;20648;-71
2021/09/13 03:59:30;;;;;;;3.63;3.33;;;16.70;99.90;;;;;;5073193;28;20230;-71
2021/09/13 04:01:58;;;;;;;3.80;3.50;;;16.80;99.90;;;;;;5073042;28;20740;-71
2021/09/13 04:04:26;;;;;;;4.03;3.63;;;16.80;99.90;;;;;;5074708;28;20217;-72
2021/09/13 04:06:56;;;;;;;4.50;4.10;;;16.80;99.90;;;;;;5076958;28;20225;-72
2021/09/13 04:12:22;;;;;;;5.45;4.13;;;16.60;99.90;;;;;;5076928;28;20187;-71
2021/09/13 04:14:50;;;;;;;3.75;3.40;;;16.60;99.90;;;;;;5076805;28;20211;-71
2021/09/13 04:17:17;;;;;;;4.22;3.83;;;16.50;99.90;;;;;;5076607;28;20599;-72
2021/09/13 04:19:44;;;;;;;3.75;3.45;;;16.40;99.90;;;;;;5076738;28;20236;-71
2021/09/13 04:22:11;;;;;;;4.38;3.78;;;16.40;99.90;;;;;;5076784;28;20205;-71
2021/09/13 04:24:37;;;;;;;4.72;4.10;;;16.50;99.90;;;;;;5076803;28;20595;-72
2021/09/13 04:27:05;;;;;;;3.65;3.30;;;16.50;99.90;;;;;;5076572;28;20649;-72
2021/09/13 04:29:32;;;;;;;5.20;4.18;;;16.50;99.90;;;;;;5076687;28;20221;-71
2021/09/13 04:32:00;;;;;;;4.07;3.67;;;16.60;99.90;;;;;;5076627;28;20213;-72
2021/09/13 04:34:27;;;;;;;5.45;3.72;;;16.60;99.90;;;;;;5076524;28;20745;-71
2021/09/13 04:36:54;;;;;;;4.55;3.88;;;16.70;99.90;;;;;;5076014;28;20314;-71
2021/09/13 04:39:20;;;;;;;4.45;3.80;;;16.60;99.90;;;;;;5076461;28;20207;-71
2021/09/13 04:41:47;;;;;;;4.90;4.00;;;16.60;99.90;;;;;;5076415;28;20227;-71
2021/09/13 04:44:14;;;;;;;4.18;3.78;;;16.60;99.90;;;;;;5076153;28;20694;-71
2021/09/13 04:46:41;;;;;;;3.40;3.10;;;16.60;99.90;;;;;;5076159;28;20229;-71
2021/09/13 04:49:09;;;;;;;5.60;4.40;;;16.60;99.90;;;;;;5076368;28;20629;-72
2021/09/13 04:51:36;;;;;;;3.83;3.50;;;16.50;99.90;;;;;;5076248;28;20298;-72
2021/09/13 04:54:03;;;;;;;4.22;3.55;;;16.40;99.90;;;;;;5076260;28;20207;-71
2021/09/13 04:56:30;;;;;;;4.70;4.20;;;16.40;99.90;;;;;;5076008;28;20313;-71
2021/09/13 04:58:57;;;;;;;10.43;4.50;;;16.40;99.90;;;;;;5076157;28;20253;-72
2021/09/13 05:01:24;;;;;;;4.55;4.15;;;16.40;99.90;;;;;;5076020;28;20230;-71
2021/09/13 05:03:51;;;;;;;4.40;3.60;;;16.40;99.90;;;;;;5075989;28;20205;-71
2021/09/13 05:06:19;;;;;;;6.20;4.10;;;16.50;99.90;;;;;;5075889;28;20644;-71
2021/09/13 05:08:46;;;;;;;5.10;4.60;;;16.50;99.90;;;;;;5075979;28;20242;-71
2021/09/13 05:11:13;;;;;;;6.57;4.05;;;16.60;99.90;;;;;;5075769;28;20199;-71
2021/09/13 05:13:39;;;;;;;5.53;4.60;;;16.60;99.90;;;;;;5075887;28;20203;-71
2021/09/13 05:16:06;;;;;;;4.60;4.07;;;16.60;99.90;;;;;;5075364;28;20232;-71
2021/09/13 05:18:33;;;;;;;4.90;4.40;;;16.60;99.90;;;;;;5075816;28;20213;-71
2021/09/13 05:21:00;;;;;;;4.80;4.30;;;16.60;99.90;;;;;;5075484;28;20314;-71
2021/09/13 05:23:28;;;;;;;5.72;4.47;;;16.70;99.90;;;;;;5075997;28;20245;-72
2021/09/13 05:25:55;;;;;;;4.63;3.70;;;16.70;99.90;;;;;;5075184;28;20313;-72
2021/09/13 05:28:22;;;;;;;5.03;4.53;;;16.70;99.90;;;;;;5075688;28;20206;-71
2021/09/13 05:30:49;;;;;;;4.47;4.05;;;16.70;99.90;;;;;;5075495;28;20289;-72
2021/09/13 05:33:16;;;;;;;5.20;4.28;;;16.70;99.90;;;;;;5075552;28;20203;-71
2021/09/13 05:35:44;;;;;;;5.25;4.20;;;16.70;99.90;;;;;;5075159;28;20225;-72
2021/09/13 05:38:11;;;;;;;4.88;4.38;;;16.70;99.90;;;;;;5075510;28;20297;-72
2021/09/13 05:40:40;;;;;;;4.57;4.18;;;16.60;99.90;;;;;;5075320;28;20226;-71
2021/09/13 05:43:07;;;;;;;5.32;4.70;;;16.40;99.90;;;;;;5075224;28;20305;-71
2021/09/13 05:45:35;;;;;;;5.10;4.05;;;16.50;99.90;;;;;;5075014;28;20216;-72
2021/09/13 05:48:02;;;;;;;5.13;4.60;;;16.50;99.90;;;;;;5075275;28;20199;-71
2021/09/13 05:50:29;;;;;;;5.50;4.53;;;16.50;99.90;;;;;;5075212;28;20306;-72
2021/09/13 05:52:56;;;;;;;5.25;4.75;;;16.40;99.90;;;;;;5075165;28;20301;-71
2021/09/13 05:55:23;;;;;;;5.75;4.88;;;16.40;99.90;;;;;;5074759;28;20217;-71
2021/09/13 05:57:51;;;;;;;5.43;4.70;;;16.40;99.90;;;;;;5075034;28;20207;-72
2021/09/13 06:00:19;;;;;;;4.97;4.57;;;16.50;99.90;;;;;;5074880;28;20580;-72
2021/09/13 06:02:46;;;;;;;5.95;4.95;;;16.60;99.90;;;;;;5074696;28;20210;-71
2021/09/13 06:05:13;;;;;;;5.30;4.80;;;16.70;99.90;;;;;;5074647;28;20576;-71
2021/09/13 06:07:40;;;;;;;5.68;4.53;;;16.80;99.90;;;;;;5074840;28;20321;-72
2021/09/13 06:10:07;;;;;;;5.05;4.55;;;16.90;99.90;;;;;;5074674;28;20195;-72
2021/09/13 06:12:35;;;;;;;6.13;4.95;;;17.00;99.90;;;;;;5074598;28;20202;-71
2021/09/13 06:15:03;;;;;;;6.15;4.50;;;17.00;99.90;;;;;;5074511;28;20260;-71
2021/09/13 06:17:30;;;;;;;5.10;4.70;;;17.10;99.90;;;;;;5074593;28;20576;-71
2021/09/13 06:19:57;;;;;;;6.43;5.45;;;17.20;99.90;;;;;;5074326;28;20225;-71
2021/09/13 06:22:24;;;;;;;4.80;3.88;;;17.20;99.90;;;;;;5074538;28;20213;-71
2021/09/13 06:24:51;;;;;;;5.10;4.60;;;17.20;99.90;;;;;;5074280;28;20215;-71
2021/09/13 06:27:17;;;;;;;5.60;4.28;;;17.30;99.90;;;;;;5073639;28;20309;-71
2021/09/13 06:29:44;;;;;;;6.10;4.88;;;17.20;99.90;;;;;;5074363;28;20297;-71
2021/09/13 06:32:12;;;;;;;5.47;4.47;;;17.20;99.90;;;;;;5074371;28;20545;-71
2021/09/13 06:34:39;;;;;;;5.50;5.00;;;17.20;99.90;;;;;;5074157;28;20298;-71
2021/09/13 06:37:06;;;;;;;5.72;5.10;;;17.30;99.90;;;;;;5074058;28;20230;-71
2021/09/13 06:39:33;;;;;;;7.00;5.35;;;17.30;99.90;;;;;;5074169;28;20241;-72
2021/09/13 06:42:00;;;;;;;7.43;5.15;;;17.30;99.90;;;;;;5073771;28;20223;-72
2021/09/13 06:44:28;;;;;;;5.50;5.00;;;17.40;99.90;;;;;;5073854;28;20213;-72
2021/09/13 06:47:04;;;;;;;6.20;5.22;;;17.30;99.90;;;;;;5073898;28;20219;-72
2021/09/13 06:49:34;;;;;;;6.60;5.90;;;17.30;99.90;;;;;;5074076;28;20199;-72
2021/09/13 06:52:01;;;;;;;6.88;6.15;;;17.30;99.90;;;;;;5073924;28;20680;-71
2021/09/13 06:54:27;;;;;;;6.32;5.70;;;17.20;99.90;;;;;;5073954;28;20209;-72
2021/09/13 06:56:56;;;;;;;7.43;6.10;;;17.10;99.90;;;;;;5073457;28;20222;-72
2021/09/13 06:59:23;;;;;;;7.45;6.50;;;17.00;99.90;;;;;;5073906;28;20209;-72
2021/09/13 07:01:50;;;;;;;7.32;6.00;;;17.00;99.90;;;;;;5073798;28;20230;-72
2021/09/13 07:04:17;;;;;;;5.53;4.97;;;17.00;99.90;;;;;;5073762;28;20705;-71
2021/09/13 07:06:45;;;;;;;7.75;6.25;;;17.20;99.90;;;;;;5073324;28;20223;-72
2021/09/13 07:09:12;;;;;;;7.07;6.15;;;17.30;99.90;;;;;;5073776;28;20298;-72
2021/09/13 07:11:39;;;;;;;6.30;5.70;;;17.30;99.90;;;;;;5073799;28;20289;-71
2021/09/13 07:14:06;;;;;;;7.45;6.50;;;17.30;99.90;;;;;;5073609;28;20245;-71
2021/09/13 07:16:33;;;;;;;6.07;5.30;;;17.40;99.90;;;;;;5073507;28;20309;-72
2021/09/13 07:19:01;;;;;;;7.28;5.97;;;17.50;99.90;;;;;;5073748;28;20206;-72
2021/09/13 07:21:28;;;;;;;7.05;5.25;;;17.70;99.90;;;;;;5073537;28;20227;-72
2021/09/13 07:23:57;;;;;;;6.95;5.55;;;17.80;99.90;;;;;;5073667;28;20202;-72
2021/09/13 07:26:24;;;;;;;7.57;6.70;;;17.70;99.90;;;;;;5073479;28;20581;-71
2021/09/13 07:28:51;;;;;;;6.20;5.60;;;17.80;99.90;;;;;;5073578;28;20199;-72
2021/09/13 07:31:18;;;;;;;7.55;5.60;;;17.70;99.90;;;;;;5073468;28;20708;-72
2021/09/13 07:33:44;;;;;;;8.02;5.63;;;17.80;99.90;;;;;;5073504;28;20206;-72
2021/09/13 07:36:11;;;;;;;7.18;5.60;;;17.80;99.90;;;;;;5073139;28;20314;-72
2021/09/13 07:38:38;;;;;;;6.95;5.85;;;17.80;99.90;;;;;;5073773;28;20560;-72
2021/09/13 07:41:06;;;;;;;6.22;5.25;;;17.70;99.90;;;;;;5077596;28;20218;-72
2021/09/13 07:43:33;;;;;;;6.55;5.85;;;17.60;99.90;;;;;;5077280;28;20745;-71
2021/09/13 07:46:00;;;;;;;6.22;5.57;;;17.70;99.90;;;;;;5077229;28;20309;-72
2021/09/13 07:48:27;;;;;;;6.10;4.85;;;17.70;99.90;;;;;;5077512;28;20667;-72
2021/09/13 07:50:54;;;;;;;7.30;4.95;;;17.80;99.90;;;;;;5077454;28;20205;-72
2021/09/13 07:53:21;;;;;;;5.50;5.00;;;17.90;99.90;;;;;;5077222;28;20653;-72
2021/09/13 07:55:47;;;;;;;5.93;5.32;;;17.90;99.90;;;;;;5077014;28;20223;-72
2021/09/13 07:58:15;;;;;;;6.38;5.75;;;17.90;99.90;;;;;;5077116;28;20692;-72
2021/09/13 08:00:42;;;;;;;6.75;5.38;;;18.00;99.90;;;;;;5077188;28;20230;-71
2021/09/13 08:03:09;;;;;;;5.70;5.15;;;18.10;99.90;;;;;;5077220;28;20214;-72
2021/09/13 08:05:36;;;;;;;5.93;4.93;;;18.20;99.90;;;;;;5076947;28;20198;-71
2021/09/13 08:08:03;;;;;;;7.20;5.43;;;18.20;99.90;;;;;;5076898;28;20205;-71
2021/09/13 08:10:30;;;;;;;8.52;5.75;;;18.20;99.90;;;;;;5077082;28;20282;-72
2021/09/13 08:12:57;;;;;;;8.23;5.82;;;18.10;99.90;;;;;;5076961;28;20732;-72
2021/09/13 08:15:25;;;;;;;9.18;6.30;;;18.10;99.90;;;;;;5076626;28;20203;-72
2021/09/13 08:17:52;;;;;;;7.25;5.90;;;18.10;99.90;;;;;;5076974;28;20210;-71
2021/09/13 08:20:19;;;;;;;7.22;5.57;;;18.20;99.90;;;;;;5076634;28;20207;-71
2021/09/13 08:22:46;;;;;;;6.82;6.13;;;18.20;99.90;;;;;;5076685;28;20695;-72
2021/09/13 08:25:13;;;;;;;6.70;6.00;;;18.30;99.90;;;;;;5076544;28;20199;-72
2021/09/13 08:27:40;;;;;;;8.57;6.20;;;18.30;99.90;;;;;;5076435;28;20315;-72
2021/09/13 08:30:07;;;;;;;6.03;5.43;;;18.40;99.90;;;;;;5076656;28;20298;-72
2021/09/13 08:32:35;;;;;;;5.35;4.85;;;18.40;99.90;;;;;;5076395;28;20211;-72
2021/09/13 08:35:03;;;;;;;5.88;4.80;;;18.50;99.90;;;;;;5076455;28;20310;-72
2021/09/13 08:37:30;;;;;;;5.30;4.75;;;18.50;99.90;;;;;;5076550;28;20219;-72
2021/09/13 08:39:58;;;;;;;5.18;4.68;;;18.50;99.90;;;;;;5076547;28;20226;-72
2021/09/13 08:42:26;;;;;;;5.47;4.80;;;18.60;99.90;;;;;;5076330;28;20220;-72
2021/09/13 08:44:57;;;;;;;5.70;5.20;;;18.60;99.90;;;;;;5075939;28;20545;-71
2021/09/13 08:47:30;;;;;;;4.75;4.20;;;18.60;99.90;;;;;;5076467;28;20234;-72
2021/09/13 08:50:05;;;;;;;4.88;3.75;;;18.70;99.90;;;;;;5075988;28;20207;-72
2021/09/13 08:52:33;;;;;;;4.30;3.70;;;18.80;99.90;;;;;;5076254;28;20195;-72
2021/09/13 08:55:01;;;;;;;4.13;3.73;;;19.00;99.90;;;;;;5075815;28;20298;-72
2021/09/13 08:57:31;;;;;;;3.73;3.10;;;19.10;99.90;;;;;;5076226;28;20463;-72
2021/09/13 08:59:58;;;;;;;3.00;2.77;;;19.10;99.90;;;;;;5076186;28;20442;-72
2021/09/13 09:02:26;;;;;;;4.93;3.20;;;19.20;99.90;;;;;;5075948;28;20514;-72
2021/09/13 09:04:54;;;;;;;4.13;3.20;;;19.30;99.90;;;;;;5075901;28;20445;-71
2021/09/13 09:07:25;;;;;;;3.70;3.40;;;19.30;99.90;;;;;;5075761;28;20470;-71
2021/09/13 09:10:10;;;;;;;3.67;3.20;;;19.30;99.90;;;;;;5075993;28;20462;-71
2021/09/13 09:12:56;;;;;;;3.30;3.00;;;19.40;99.90;;;;;;5076027;28;20553;-71
2021/09/13 09:15:23;;;;;;;4.17;3.77;;;19.40;99.90;;;;;;5075640;28;20441;-71
2021/09/13 09:17:53;;;;;;;3.67;3.33;;;19.50;99.90;;;;;;5075640;28;20962;-71
2021/09/13 09:20:20;;;;;;;5.00;3.90;;;19.60;99.90;;;;;;5075814;28;21000;-71
2021/09/13 09:23:00;;;;;;;4.30;3.90;;;19.60;99.90;;;;;;5075671;28;20489;-71
2021/09/13 09:25:28;;;;;;;4.43;4.03;;;19.80;99.90;;;;;;5075416;28;20451;-72
2021/09/13 09:27:57;;;;;;;4.20;3.63;;;19.80;99.90;;;;;;5075431;28;20991;-71
2021/09/13 09:30:34;;;;;;;4.20;3.80;;;19.90;99.90;;;;;;5075371;28;20439;-71
2021/09/13 09:33:07;;;;;;;4.20;3.83;;;20.00;99.90;;;;;;5075621;28;20861;-71
2021/09/13 09:35:45;;;;;;;3.40;3.10;;;20.10;99.90;;;;;;5075263;28;20458;-71
2021/09/13 09:38:34;;;;;;;4.00;3.70;;;20.10;99.90;;;;;;5075521;28;20796;-72
2021/09/13 09:41:03;;;;;;;4.10;3.80;;;20.20;99.90;;;;;;5075308;28;20827;-71
2021/09/13 09:43:31;;;;;;;4.00;3.60;;;20.30;99.90;;;;;;5074922;28;20856;-72
2021/09/13 09:45:58;;;;;;;3.23;3.03;;;20.30;99.90;;;;;;5075090;28;20856;-72
2021/09/13 09:48:31;;;;;;;3.60;3.30;;;20.60;99.90;;;;;;5075293;28;20451;-71
2021/09/13 09:50:58;;;;;;;4.77;3.77;;;21.30;99.90;;;;;;5075246;28;20445;-71
2021/09/13 09:53:29;;;;;;;3.43;3.10;;;22.40;99.90;;;;;;5075105;28;20512;-72
2021/09/13 09:56:11;;;;;;;4.00;3.70;;;23.40;99.90;;;;;;5074973;28;20863;-72
2021/09/13 09:58:59;;;;;;;4.00;3.70;;;23.80;99.90;;;;;;5075522;28;20454;-72
2021/09/13 10:01:37;;;;;;;4.20;3.80;;;23.80;99.90;;;;;;5074154;28;20489;-72
2021/09/13 10:04:22;;;;;;;3.87;3.57;;;23.80;99.90;;;;;;5074912;28;20858;-72
2021/09/13 10:06:51;;;;;;;4.40;4.00;;;23.70;99.90;;;;;;5074962;28;20476;-71
2021/09/13 10:09:19;;;;;;;4.43;3.83;;;23.60;99.90;;;;;;5074691;28;21036;-72
2021/09/13 10:11:49;;;;;;;4.40;3.97;;;23.40;99.90;;;;;;5074786;28;20522;-72
2021/09/13 10:14:18;;;;;;;4.33;3.80;;;23.40;99.90;;;;;;5074642;28;20447;-72
2021/09/13 10:16:46;;;;;;;4.67;4.27;;;23.70;99.90;;;;;;5074486;28;20475;-73
2021/09/13 10:19:14;;;;;;;4.20;3.80;;;24.60;99.90;;;;;;5074627;28;20528;-72
2021/09/13 10:21:41;;;;;;;4.33;4.00;;;26.20;98.60;;;;;;5074201;28;20991;-72
2021/09/13 10:24:13;;;;;;;3.73;3.43;;;27.80;94.70;;;;;;5074522;28;20456;-72
2021/09/13 10:26:41;;;;;;;3.83;3.53;;;29.10;91.70;;;;;;5073980;28;20975;-70
2021/09/13 10:29:23;;;;;;;3.83;3.53;;;30.20;87.60;;;;;;5074181;28;20957;-70
2021/09/13 10:32:02;;;;;;;3.90;3.60;;;31.20;82.00;;;;;;5074239;28;20440;-70
2021/09/13 10:34:32;;;;;;;4.50;4.10;;;31.50;75.20;;;;;;5074375;28;20449;-70
2021/09/13 10:37:14;;;;;;;3.80;3.50;;;31.20;73.80;;;;;;5073870;28;20887;-70
2021/09/13 10:39:59;;;;;;;4.03;3.63;;;30.50;77.50;;;;;;5074206;28;20480;-70
2021/09/13 10:42:34;;;;;;;4.27;3.90;;;30.10;80.20;;;;;;5074150;28;20835;-70
2021/09/13 10:45:25;;;;;;;4.90;4.50;;;29.70;79.20;;;;;;5073799;28;20540;-70
2021/09/13 10:48:07;;;;;;;4.73;4.33;;;28.70;80.80;;;;;;5074806;28;20450;-70
2021/09/13 10:50:39;;;;;;;5.07;4.53;;;28.00;82.40;;;;;;5073829;28;21012;-70
2021/09/13 10:53:30;;;;;;;4.40;4.00;;;27.60;84.10;;;;;;5074042;28;20441;-69
2021/09/13 10:55:59;;;;;;;4.43;4.03;;;26.70;89.40;;;;;;5073918;28;20469;-69
2021/09/13 10:58:42;;;;;;;5.20;4.10;;;26.90;90.00;;;;;;5073726;28;20945;-70
2021/09/13 11:01:20;;;;;;;4.40;3.77;;;27.50;87.70;;;;;;5073735;28;20524;-70
2021/09/13 11:03:51;;;;;;;4.60;4.20;;;27.50;88.20;;;;;;5073906;28;20799;-70
2021/09/13 11:06:43;;;;;;;5.37;4.30;;;28.20;86.80;;;;;;5073463;28;20876;-70
2021/09/13 11:09:14;;;;;;;4.30;3.90;;;29.30;81.30;;;;;;5073832;28;20532;-70
2021/09/13 11:11:44;;;;;;;4.33;4.03;;;30.40;79.40;;;;;;5073820;28;20525;-70
2021/09/13 11:14:13;;;;;;;4.73;4.33;;;30.90;75.80;;;;;;5073544;28;20441;-70
2021/09/13 11:16:43;;;;;;;4.10;3.80;;;31.70;72.30;;;;;;5073260;28;20562;-71
2021/09/13 11:19:11;;;;;;;4.77;4.40;;;32.90;70.10;;;;;;5074435;28;20765;-70
2021/09/13 11:21:41;;;;;;;3.97;3.67;;;33.30;63.30;;;;;;5073591;28;20479;-70
2021/09/13 11:24:10;;;;;;;4.30;4.00;;;33.60;64.70;;;;;;5074292;28;20494;-71
2021/09/13 11:26:39;;;;;;;4.30;4.00;;;33.90;63.50;;;;;;5073386;28;20457;-70
2021/09/13 11:29:07;;;;;;;3.93;3.63;;;33.70;59.30;;;;;;5073608;28;20536;-70
2021/09/13 11:31:36;;;;;;;4.30;4.00;;;32.50;62.70;;;;;;5073526;28;20531;-70
2021/09/13 11:34:07;;;;;;;4.13;3.73;;;32.00;64.60;;;;;;5073546;28;20552;-70
2021/09/13 11:36:34;;;;;;;4.00;3.70;;;32.20;63.00;;;;;;5073322;28;20461;-70
2021/09/13 11:39:06;;;;;;;4.13;3.83;;;32.60;62.70;;;;;;5073386;28;20993;-70
2021/09/13 11:41:33;;;;;;;5.60;3.83;;;32.40;62.20;;;;;;5073403;28;20449;-70
2021/09/13 11:44:10;;;;;;;4.30;3.90;;;32.20;61.80;;;;;;5073047;28;20569;-69
2021/09/13 11:46:52;;;;;;;3.93;3.63;;;31.50;63.90;;;;;;5073008;28;20558;-70
2021/09/13 11:49:24;;;;;;;4.60;4.30;;;30.90;65.20;;;;;;5073451;28;20459;-70
2021/09/13 11:52:03;;;;;;;5.23;4.73;;;30.40;69.00;;;;;;5073340;28;20445;-70
2021/09/13 11:54:30;;;;;;;4.43;4.03;;;30.10;71.90;;;;;;5073377;28;20451;-70
2021/09/13 11:56:57;;;;;;;4.67;4.30;;;29.80;75.20;;;;;;5072850;28;20464;-70
2021/09/13 11:59:25;;;;;;;3.37;3.07;;;29.20;76.10;;;;;;5073337;28;20433;-70
2021/09/13 12:01:59;;;;;;;3.57;3.37;;;29.00;74.60;;;;;;5073090;28;20483;-70
2021/09/13 12:04:28;;;;;;;3.90;3.33;;;28.60;76.10;;;;;;5073230;28;20473;-70
2021/09/13 12:07:09;;;;;;;4.23;3.83;;;28.30;73.30;;;;;;5072763;28;20468;-70
2021/09/13 12:09:38;;;;;;;4.20;3.80;;;28.00;78.50;;;;;;5073238;28;20447;-69
2021/09/13 12:12:05;;;;;;;4.20;3.90;;;27.70;76.00;;;;;;5073123;28;20441;-69
2021/09/13 12:14:34;;;;;;;4.20;3.90;;;27.50;76.10;;;;;;5073108;28;20447;-71
2021/09/13 12:17:09;;;;;;;4.17;3.77;;;27.30;80.20;;;;;;5072678;28;20594;-70
2021/09/13 12:19:39;;;;;;;4.27;3.93;;;27.10;82.60;;;;;;5073074;28;20447;-69
2021/09/13 12:22:07;;;;;;;3.93;3.63;;;26.70;81.50;;;;;;5073002;28;20476;-69
2021/09/13 12:24:36;;;;;;;4.60;4.20;;;26.50;86.00;;;;;;5073166;28;20437;-69
2021/09/13 12:27:30;;;;;;;7.97;6.77;;;26.30;84.70;;;;;;5076515;28;20471;-69
2021/09/13 12:30:01;;;;;;;4.77;4.20;;;26.30;87.00;;;;;;5041160;28;20449;-69
2021/09/13 12:32:29;;;;;;;4.13;3.77;;;26.20;87.40;;;;;;5076434;28;20994;-69
2021/09/13 12:35:01;;;;;;;4.30;4.00;;;26.10;88.80;;;;;;5076282;28;20528;-70
2021/09/13 12:37:30;;;;;;;4.33;4.00;;;26.10;90.60;;;;;;5076555;28;20471;-69
2021/09/13 12:40:14;;;;;;;4.73;4.33;;;26.10;91.70;;;;;;5076224;28;20436;-69
2021/09/13 12:42:53;;;;;;;5.17;4.67;;;26.00;90.20;;;;;;5076235;28;20476;-72
2021/09/13 12:45:21;;;;;;;4.93;4.47;;;26.00;90.40;;;;;;5075889;28;20460;-72
2021/09/13 12:47:56;;;;;;;4.10;3.80;;;26.00;91.20;;;;;;5076174;28;20942;-72
2021/09/13 12:50:36;;;;;;;7.53;4.03;;;26.10;90.50;;;;;;5076260;28;20527;-71
2021/09/13 12:53:11;;;;;;;4.70;4.27;;;26.30;89.90;;;;;;5076310;28;20527;-71
2021/09/13 12:55:40;;;;;;;4.53;4.10;;;26.30;89.80;;;;;;5075931;28;20487;-72
2021/09/13 12:58:27;;;;;;;5.27;3.90;;;26.30;89.00;;;;;;5076262;28;20441;-72
2021/09/13 13:00:55;;;;;;;4.53;4.13;;;26.30;90.60;;;;;;5075948;28;20441;-72